Time;durP1;ratioP1;P1;durP2;ratioP2;P2;SDS_P1;SDS_P2;PMS_P1;PMS_P2;Temp;Humidity;BMP_temperature;BMP_pressure;BME280_temperature;BME280_humidity;BME280_pressure;Samples;Min_cycle;Max_cycle;Signal;HPM_P1;HPM_P2
2021/07/29 00:02:15;;;;;;;6.18;2.97;;;;;;;17.12;80.97;100663.97;5014817;28;20053;-69
2021/07/29 00:04:41;;;;;;;7.57;2.88;;;;;;;17.12;81.24;100665.78;5026625;28;20060;-69
2021/07/29 00:07:08;;;;;;;5.82;2.70;;;;;;;17.19;80.69;100673.25;5024444;28;20521;-69
2021/07/29 00:09:35;;;;;;;7.32;2.47;;;;;;;17.16;80.00;100662.91;5028214;28;20422;-70
2021/07/29 00:12:02;;;;;;;6.45;2.60;;;;;;;17.09;80.12;100658.88;5024480;28;20057;-70
2021/07/29 00:14:29;;;;;;;10.20;2.63;;;;;;;17.05;80.22;100660.78;5016327;28;20045;-69
2021/07/29 00:16:59;;;;;;;10.07;2.70;;;;;;;17.02;80.03;100655.66;5019200;28;20048;-70
2021/07/29 00:19:24;;;;;;;5.05;2.60;;;;;;;16.97;80.32;100651.59;5029942;28;20126;-69
2021/07/29 00:21:51;;;;;;;8.30;3.28;;;;;;;16.96;79.92;100661.22;5016841;28;20045;-70
2021/07/29 00:24:18;;;;;;;7.03;2.45;;;;;;;16.89;79.94;100657.16;5019719;28;20119;-69
2021/07/29 00:26:45;;;;;;;5.90;2.40;;;;;;;16.84;80.29;100656.50;5028114;28;20053;-69
2021/07/29 00:29:12;;;;;;;5.20;2.30;;;;;;;16.83;80.41;100654.81;5028129;28;20056;-71
2021/07/29 00:31:38;;;;;;;5.68;2.50;;;;;;;16.81;80.19;100648.78;5018702;28;20057;-70
2021/07/29 00:34:05;;;;;;;5.07;2.60;;;;;;;16.85;80.79;100642.47;5014801;28;20102;-70
2021/07/29 00:36:32;;;;;;;5.35;2.50;;;;;;;16.82;80.27;100642.63;5022653;28;20048;-70
2021/07/29 00:38:59;;;;;;;6.55;2.28;;;;;;;16.88;80.50;100648.41;5028290;28;20053;-70
2021/07/29 00:41:25;;;;;;;5.50;2.30;;;;;;;16.85;80.38;100637.19;5032014;28;20045;-70
2021/07/29 00:44:01;;;;;;;4.95;2.40;;;;;;;16.82;80.00;100642.63;5025705;28;20096;-69
2021/07/29 00:46:29;;;;;;;6.38;2.63;;;;;;;16.74;80.37;100640.34;5016289;28;20049;-70
2021/07/29 00:48:55;;;;;;;7.18;2.70;;;;;;;16.78;80.47;100644.50;5021941;28;20103;-69
2021/07/29 00:51:22;;;;;;;5.57;2.25;;;;;;;16.79;80.13;100652.34;5031923;28;20077;-69
2021/07/29 00:53:48;;;;;;;5.35;2.20;;;;;;;16.78;80.21;100653.25;5025071;28;20144;-71
2021/07/29 00:56:15;;;;;;;6.53;2.78;;;;;;;16.69;79.94;100651.06;5024295;28;20046;-70
2021/07/29 00:58:42;;;;;;;5.82;2.30;;;;;;;16.68;79.96;100657.25;5027415;28;20057;-70
2021/07/29 01:01:09;;;;;;;5.93;2.58;;;;;;;16.66;80.47;100648.56;5027859;28;20104;-70
2021/07/29 01:03:36;;;;;;;4.32;2.38;;;;;;;16.68;80.08;100643.25;5026613;28;20466;-70
2021/07/29 01:06:02;;;;;;;5.53;2.33;;;;;;;16.69;79.85;100637.94;5012428;28;20056;-70
2021/07/29 01:08:29;;;;;;;8.05;2.58;;;;;;;16.74;79.91;100637.72;5016881;28;20053;-70
2021/07/29 01:10:55;;;;;;;7.50;2.35;;;;;;;16.72;78.84;100634.31;5025087;28;20556;-69
2021/07/29 01:13:21;;;;;;;7.60;2.60;;;;;;;16.69;78.66;100634.44;5027126;28;20050;-69
2021/07/29 01:15:48;;;;;;;8.25;2.55;;;;;;;16.69;78.78;100631.81;5022551;28;20053;-69
2021/07/29 01:18:16;;;;;;;9.20;2.53;;;;;;;16.69;78.85;100627.44;5017589;28;20100;-69
2021/07/29 01:20:44;;;;;;;8.50;2.65;;;;;;;16.67;78.58;100634.53;5022437;28;20053;-70
2021/07/29 01:23:10;;;;;;;5.70;2.03;;;;;;;16.63;78.50;100627.69;5023273;28;20046;-69
2021/07/29 01:25:37;;;;;;;5.40;1.88;;;;;;;16.63;78.38;100625.94;5017862;28;20422;-69
2021/07/29 01:28:03;;;;;;;5.35;2.10;;;;;;;16.66;79.05;100616.22;5026463;28;20056;-69
2021/07/29 01:30:29;;;;;;;5.63;2.13;;;;;;;16.65;78.92;100620.59;5018427;28;22209;-69
2021/07/29 01:32:56;;;;;;;7.35;2.30;;;;;;;16.57;79.63;100620.13;5017728;28;20052;-69
2021/07/29 01:35:22;;;;;;;6.65;2.60;;;;;;;16.58;79.86;100614.78;5029314;28;20057;-70
2021/07/29 01:37:50;;;;;;;5.05;2.55;;;;;;;16.62;79.45;100624.22;5021025;28;20045;-69
2021/07/29 01:40:17;;;;;;;5.53;2.30;;;;;;;16.56;80.35;100621.03;5020066;28;20107;-69
2021/07/29 01:42:43;;;;;;;5.47;2.80;;;;;;;16.53;80.38;100624.66;5021107;28;20057;-69
2021/07/29 01:45:11;;;;;;;4.50;2.60;;;;;;;16.48;80.73;100627.50;5020019;28;20110;-69
2021/07/29 01:47:37;;;;;;;6.95;2.55;;;;;;;16.51;80.66;100629.13;5020756;28;20050;-69
2021/07/29 01:50:04;;;;;;;4.20;2.50;;;;;;;16.48;80.75;100619.63;5016801;28;20042;-69
2021/07/29 01:52:31;;;;;;;6.07;2.70;;;;;;;16.48;80.62;100622.25;5028338;28;20049;-69
2021/07/29 01:54:59;;;;;;;8.05;2.20;;;;;;;16.41;80.71;100620.84;5018905;28;20107;-69
2021/07/29 01:57:26;;;;;;;7.43;2.92;;;;;;;16.40;80.81;100621.75;5016136;28;20049;-69
2021/07/29 01:59:52;;;;;;;5.60;2.38;;;;;;;16.41;80.48;100628.72;5018839;28;20499;-69
2021/07/29 02:02:19;;;;;;;7.60;2.80;;;;;;;16.36;80.54;100625.44;5024838;28;20081;-69
2021/07/29 02:04:45;;;;;;;5.75;2.58;;;;;;;16.27;80.76;100625.84;5029983;28;20084;-69
2021/07/29 02:07:12;;;;;;;5.63;2.40;;;;;;;16.31;80.86;100630.88;5028493;28;20103;-69
2021/07/29 02:09:38;;;;;;;5.50;2.53;;;;;;;16.20;81.33;100629.66;5018447;28;20064;-68
2021/07/29 02:12:07;;;;;;;7.15;2.38;;;;;;;16.21;81.03;100631.38;5020703;28;20050;-69
2021/07/29 02:14:33;;;;;;;10.45;2.60;;;;;;;16.19;81.25;100627.97;5015020;28;20111;-70
2021/07/29 02:16:59;;;;;;;5.90;2.30;;;;;;;16.16;81.29;100632.41;5026344;28;20087;-69
2021/07/29 02:19:26;;;;;;;7.03;2.70;;;;;;;16.11;81.50;100628.28;5021382;28;20045;-70
2021/07/29 02:21:52;;;;;;;6.93;2.67;;;;;;;16.12;81.12;100628.22;5029572;28;20050;-69
2021/07/29 02:24:19;;;;;;;11.43;3.13;;;;;;;15.99;81.42;100627.91;5024762;28;20037;-69
2021/07/29 02:26:45;;;;;;;8.43;2.78;;;;;;;15.99;81.47;100621.81;5024404;28;20099;-69
2021/07/29 02:29:13;;;;;;;8.55;2.78;;;;;;;16.00;81.95;100627.00;5025691;28;20057;-69
2021/07/29 02:31:40;;;;;;;6.25;2.67;;;;;;;16.05;81.99;100626.78;5026019;28;20053;-69
2021/07/29 02:34:06;;;;;;;8.23;2.53;;;;;;;16.03;81.74;100623.38;5019432;28;20060;-69
2021/07/29 02:36:33;;;;;;;5.30;2.50;;;;;;;15.99;82.16;100633.16;5016881;28;20107;-69
2021/07/29 02:38:59;;;;;;;8.30;3.42;;;;;;;16.01;82.11;100627.88;5026223;28;20067;-69
2021/07/29 02:41:26;;;;;;;6.30;2.90;;;;;;;16.03;82.55;100633.88;5026278;28;20553;-70
2021/07/29 02:43:52;;;;;;;9.60;2.88;;;;;;;16.02;82.52;100626.91;5025689;28;20100;-69
2021/07/29 02:46:20;;;;;;;8.57;3.05;;;;;;;16.03;82.25;100627.78;5021010;28;20050;-69
2021/07/29 02:48:46;;;;;;;7.80;3.05;;;;;;;16.07;82.14;100626.75;5028211;28;20111;-70
2021/07/29 02:51:13;;;;;;;8.90;2.80;;;;;;;16.02;82.43;100632.16;5021667;28;20053;-69
2021/07/29 02:53:39;;;;;;;5.53;2.63;;;;;;;15.94;82.50;100629.03;5030344;28;20049;-69
2021/07/29 02:56:08;;;;;;;5.32;2.78;;;;;;;15.95;82.51;100635.97;5024370;28;20053;-69
2021/07/29 02:58:34;;;;;;;9.57;3.45;;;;;;;15.97;82.34;100642.03;5010631;28;20045;-69
2021/07/29 03:01:01;;;;;;;11.93;3.30;;;;;;;15.96;81.94;100640.31;5025414;28;20045;-69
2021/07/29 03:03:28;;;;;;;9.15;2.85;;;;;;;15.95;82.41;100646.47;5053882;22;20056;-68
2021/07/29 03:05:55;;;;;;;9.43;3.20;;;;;;;15.93;82.54;100643.94;5044662;28;20052;-67
2021/07/29 03:08:21;;;;;;;11.18;3.05;;;;;;;15.93;82.44;100649.19;5047383;28;20036;-67
2021/07/29 03:10:48;;;;;;;8.00;3.13;;;;;;;15.91;82.77;100642.28;5040495;28;20565;-67
2021/07/29 03:13:15;;;;;;;8.52;2.85;;;;;;;15.90;82.58;100648.47;5046533;28;20132;-68
2021/07/29 03:15:41;;;;;;;7.93;2.70;;;;;;;15.93;82.41;100649.19;5046792;28;20055;-68
2021/07/29 03:18:08;;;;;;;8.88;3.00;;;;;;;15.95;81.94;100656.97;5046258;28;20425;-67
2021/07/29 03:20:36;;;;;;;6.28;2.53;;;;;;;16.00;81.76;100647.97;5036221;28;20095;-67
2021/07/29 03:23:03;;;;;;;7.35;2.80;;;;;;;15.95;81.68;100655.22;5046868;28;20052;-67
2021/07/29 03:25:29;;;;;;;11.77;2.72;;;;;;;15.90;81.75;100653.69;5046007;28;20044;-67
2021/07/29 03:27:56;;;;;;;8.35;2.80;;;;;;;15.92;81.84;100649.25;5041596;28;20501;-68
2021/07/29 03:30:22;;;;;;;8.52;3.10;;;;;;;15.96;81.48;100643.81;5042236;28;20053;-67
2021/07/29 03:32:48;;;;;;;6.78;2.90;;;;;;;15.98;81.59;100656.84;5039552;28;20448;-68
2021/07/29 03:35:15;;;;;;;8.25;2.70;;;;;;;15.94;81.72;100650.00;5044899;28;20103;-67
2021/07/29 03:37:43;;;;;;;7.60;3.20;;;;;;;15.99;81.27;100650.69;5039453;28;20053;-67
2021/07/29 03:40:10;;;;;;;9.32;2.97;;;;;;;16.03;81.00;100654.03;5043844;28;20094;-68
2021/07/29 03:42:37;;;;;;;5.05;2.45;;;;;;;15.99;81.49;100650.69;5042921;28;20056;-68
2021/07/29 03:45:04;;;;;;;7.63;3.13;;;;;;;15.94;81.33;100655.25;5042628;28;21310;-67
2021/07/29 03:47:30;;;;;;;8.07;3.03;;;;;;;15.96;80.79;100650.81;5038680;28;20123;-67
2021/07/29 03:49:57;;;;;;;14.48;3.17;;;;;;;15.90;80.92;100653.69;5045168;28;20048;-67
2021/07/29 03:52:23;;;;;;;9.98;2.78;;;;;;;15.87;80.90;100653.81;5045177;28;20477;-67
2021/07/29 03:54:52;;;;;;;9.98;2.72;;;;;;;15.82;81.34;100646.97;5043198;28;20052;-68
2021/07/29 03:57:19;;;;;;;6.72;2.65;;;;;;;15.69;81.96;100656.28;5043431;28;20045;-65
2021/07/29 03:59:46;;;;;;;9.00;3.30;;;;;;;15.65;82.04;100647.69;5043183;28;20053;-67
2021/07/29 04:02:12;;;;;;;10.20;3.17;;;;;;;15.60;82.20;100651.44;5041552;28;20052;-67
2021/07/29 04:04:39;;;;;;;8.45;2.83;;;;;;;15.64;82.47;100647.75;5033945;28;20045;-67
2021/07/29 04:07:06;;;;;;;11.40;2.90;;;;;;;15.64;82.30;100648.63;5035872;28;20065;-68
2021/07/29 04:09:33;;;;;;;10.40;3.67;;;;;;;15.61;82.55;100658.38;5036226;28;20053;-66
2021/07/29 04:12:01;;;;;;;8.85;2.60;;;;;;;15.67;82.14;100658.13;5040335;28;20670;-68
2021/07/29 04:14:28;;;;;;;8.00;2.63;;;;;;;15.69;82.74;100651.03;5035594;28;20041;-67
2021/07/29 04:16:55;;;;;;;8.05;2.88;;;;;;;15.76;82.10;100651.63;5042897;28;20053;-68
2021/07/29 04:19:21;;;;;;;7.28;2.83;;;;;;;15.79;81.91;100646.25;5035051;28;20537;-68
2021/07/29 04:21:48;;;;;;;10.02;3.10;;;;;;;15.87;81.46;100653.81;5041153;28;20126;-67
2021/07/29 04:24:15;;;;;;;9.82;2.92;;;;;;;15.83;81.38;100661.78;5042020;28;20099;-67
2021/07/29 04:26:41;;;;;;;7.70;2.88;;;;;;;15.93;81.25;100662.28;5043348;28;20123;-69
2021/07/29 04:29:09;;;;;;;7.63;3.25;;;;;;;15.95;80.95;100663.09;5035883;28;20041;-68
2021/07/29 04:31:35;;;;;;;9.23;2.92;;;;;;;15.95;80.66;100668.31;5040141;28;20079;-68
2021/07/29 04:34:02;;;;;;;9.10;2.75;;;;;;;15.98;80.79;100665.56;5040089;28;20057;-68
2021/07/29 04:36:28;;;;;;;12.07;3.00;;;;;;;16.05;80.61;100668.78;5033316;28;20049;-68
2021/07/29 04:38:55;;;;;;;8.60;2.90;;;;;;;16.07;80.78;100664.31;5037588;28;20041;-68
2021/07/29 04:41:21;;;;;;;8.20;2.83;;;;;;;16.06;80.71;100677.50;5039140;28;20111;-67
2021/07/29 04:43:47;;;;;;;7.75;2.90;;;;;;;16.09;80.69;100677.34;5037815;28;20122;-67
2021/07/29 04:46:15;;;;;;;6.40;2.20;;;;;;;16.10;80.44;100677.31;5040659;28;20049;-66
2021/07/29 04:48:42;;;;;;;9.05;2.72;;;;;;;16.20;79.88;100680.38;5036624;28;20045;-67
2021/07/29 04:51:08;;;;;;;10.27;2.67;;;;;;;16.18;79.30;100687.44;5042760;28;20461;-67
2021/07/29 04:53:35;;;;;;;10.30;3.75;;;;;;;16.21;79.93;100684.69;5034306;28;20049;-68
2021/07/29 04:56:03;;;;;;;9.20;2.42;;;;;;;16.30;79.22;100684.28;5035443;28;20513;-67
2021/07/29 04:58:29;;;;;;;8.27;2.85;;;;;;;16.43;78.11;100681.97;5035696;28;20052;-63
2021/07/29 05:00:55;;;;;;;9.52;2.40;;;;;;;16.59;77.50;100678.66;5040352;28;20774;-67
2021/07/29 05:03:23;;;;;;;13.50;2.78;;;;;;;16.70;77.24;100679.03;5037293;28;20124;-67
2021/07/29 05:05:50;;;;;;;16.02;4.32;;;;;;;16.87;78.25;100680.03;5038685;28;20057;-68
2021/07/29 05:08:16;;;;;;;6.18;2.30;;;;;;;17.08;74.73;100678.19;5032797;28;20061;-68
2021/07/29 05:10:42;;;;;;;9.15;2.80;;;;;;;17.21;76.05;100686.34;5039121;28;20045;-68
2021/07/29 05:13:09;;;;;;;10.60;2.28;;;;;;;17.50;73.30;100682.28;5037122;28;20498;-68
2021/07/29 05:15:36;;;;;;;9.43;2.20;;;;;;;17.52;73.94;100688.34;5035586;28;20048;-68
2021/07/29 05:18:03;;;;;;;9.18;2.30;;;;;;;17.68;73.20;100688.44;5038459;28;20049;-68
2021/07/29 05:20:31;;;;;;;7.55;2.30;;;;;;;17.80;72.04;100689.59;5038471;28;20130;-68
2021/07/29 05:22:57;;;;;;;9.65;2.38;;;;;;;17.86;72.69;100691.94;5036558;28;20536;-68
2021/07/29 05:25:23;;;;;;;11.07;2.30;;;;;;;18.03;72.10;100685.81;5040269;28;20098;-68
2021/07/29 05:27:50;;;;;;;11.05;3.00;;;;;;;18.16;70.17;100680.78;5036579;28;20045;-68
2021/07/29 05:30:18;;;;;;;7.82;2.67;;;;;;;18.16;71.05;100690.44;5035209;28;20102;-68
2021/07/29 05:32:44;;;;;;;7.78;2.15;;;;;;;18.25;69.65;100692.59;5039647;28;20053;-68
2021/07/29 05:35:11;;;;;;;8.40;1.98;;;;;;;18.38;69.26;100689.31;5046752;28;20106;-68
2021/07/29 05:37:39;;;;;;;7.55;2.00;;;;;;;18.41;69.54;100691.81;5039685;28;20612;-68
2021/07/29 05:40:07;;;;;;;12.27;3.17;;;;;;;18.47;68.61;100688.84;5037329;28;20122;-68
2021/07/29 05:42:34;;;;;;;11.45;2.92;;;;;;;18.57;70.06;100690.06;5037418;28;20053;-68
2021/07/29 05:45:00;;;;;;;9.63;2.47;;;;;;;18.83;68.05;100700.94;5039226;28;20052;-68
2021/07/29 05:47:27;;;;;;;6.55;1.98;;;;;;;19.00;66.62;100696.59;5036499;28;20514;-68
2021/07/29 05:49:53;;;;;;;7.97;1.80;;;;;;;18.80;67.62;100703.78;5036957;28;20056;-67
2021/07/29 05:52:20;;;;;;;9.25;2.47;;;;;;;19.09;67.64;100703.97;5037670;28;20103;-67
2021/07/29 05:54:47;;;;;;;9.63;2.40;;;;;;;19.23;65.13;100698.78;5037836;28;20136;-68
2021/07/29 05:57:14;;;;;;;9.73;2.45;;;;;;;19.18;66.47;100710.50;5035562;28;20099;-68
2021/07/29 05:59:41;;;;;;;7.88;1.73;;;;;;;19.27;64.89;100705.59;5038215;28;20056;-67
2021/07/29 06:02:07;;;;;;;10.55;2.58;;;;;;;19.25;65.05;100704.81;5034005;28;20066;-67
2021/07/29 06:04:34;;;;;;;7.63;2.20;;;;;;;19.07;66.49;100708.50;5035539;28;20585;-67
2021/07/29 06:07:00;;;;;;;9.10;2.00;;;;;;;19.36;64.87;100704.22;5036011;28;20636;-67
2021/07/29 06:09:27;;;;;;;9.93;2.17;;;;;;;19.39;64.57;100709.31;5036828;28;20049;-67
2021/07/29 06:11:54;;;;;;;10.15;2.78;;;;;;;19.17;65.34;100706.16;5037370;28;20049;-67
2021/07/29 06:14:21;;;;;;;37.58;22.63;;;;;;;19.27;64.84;100716.13;5032799;28;20044;-67
2021/07/29 06:16:47;;;;;;;9.88;3.97;;;;;;;19.61;64.23;100717.81;5034248;28;20049;-68
2021/07/29 06:19:17;;;;;;;11.55;2.35;;;;;;;19.85;63.14;100716.38;5039992;28;20041;-67
2021/07/29 06:21:44;;;;;;;10.20;2.75;;;;;;;20.00;63.92;100724.34;5034511;28;20073;-67
2021/07/29 06:24:10;;;;;;;7.28;1.85;;;;;;;20.18;61.79;100717.97;5035240;28;20056;-66
2021/07/29 06:26:38;;;;;;;8.82;2.15;;;;;;;20.19;63.35;100721.44;5036389;28;20087;-67
2021/07/29 06:29:07;;;;;;;13.52;2.28;;;;;;;20.33;61.99;100710.91;5040283;28;20053;-68
2021/07/29 06:31:33;;;;;;;8.18;1.80;;;;;;;20.19;61.70;100717.03;5043177;28;20057;-67
2021/07/29 06:34:00;;;;;;;11.30;2.10;;;;;;;20.27;60.71;100711.28;5032875;28;20041;-68
2021/07/29 06:36:26;;;;;;;6.80;1.90;;;;;;;20.22;60.60;100723.91;5036304;28;20391;-67
2021/07/29 06:38:53;;;;;;;7.53;1.85;;;;;;;20.12;61.18;100720.97;5044870;28;20391;-66
2021/07/29 06:41:19;;;;;;;11.13;1.90;;;;;;;20.27;59.99;100726.28;5044347;28;20060;-66
2021/07/29 06:43:46;;;;;;;7.28;1.55;;;;;;;20.32;60.76;100740.03;5035185;28;20939;-67
2021/07/29 06:46:13;;;;;;;11.55;2.10;;;;;;;20.33;60.02;100736.47;5036823;28;20049;-66
2021/07/29 06:48:40;;;;;;;10.68;2.08;;;;;;;19.84;60.91;100748.13;5039682;28;20056;-66
2021/07/29 06:51:08;;;;;;;9.40;2.58;;;;;;;19.44;62.61;100738.06;5035624;28;20433;-66
2021/07/29 06:53:35;;;;;;;9.25;2.30;;;;;;;19.07;62.78;100746.22;5041762;28;20102;-67
2021/07/29 06:56:02;;;;;;;10.80;2.20;;;;;;;18.84;63.63;100743.97;5044786;28;20136;-67
2021/07/29 06:58:29;;;;;;;12.13;2.00;;;;;;;18.91;63.51;100755.88;5038053;28;20049;-66
2021/07/29 07:00:55;;;;;;;8.75;2.45;;;;;;;18.99;62.88;100752.88;5035953;28;20147;-67
2021/07/29 07:03:23;;;;;;;11.15;2.53;;;;;;;19.04;63.10;100761.38;5038745;28;20055;-66
2021/07/29 07:05:49;;;;;;;7.97;1.77;;;;;;;19.05;62.35;100748.13;5040932;28;20426;-66
2021/07/29 07:08:16;;;;;;;12.88;2.40;;;;;;;18.92;62.81;100755.78;5040960;28;20414;-66
2021/07/29 07:10:43;;;;;;;11.32;2.38;;;;;;;18.80;63.86;100752.03;5035605;28;20442;-66
2021/07/29 07:13:09;;;;;;;8.65;1.65;;;;;;;18.82;63.28;100762.50;5041562;28;20051;-67
2021/07/29 07:15:36;;;;;;;16.05;3.13;;;;;;;18.74;63.69;100748.88;5039532;28;20057;-67
2021/07/29 07:18:02;;;;;;;12.35;2.28;;;;;;;18.98;63.30;100751.16;5045253;28;20048;-65
2021/07/29 07:20:30;;;;;;;10.32;2.28;;;;;;;19.15;63.96;100748.44;5044250;28;20049;-66
2021/07/29 07:22:56;;;;;;;10.98;2.33;;;;;;;19.24;62.87;100750.56;5044769;28;20099;-67
2021/07/29 07:25:23;;;;;;;9.70;2.03;;;;;;;19.20;62.76;100764.03;5047902;28;20453;-66
2021/07/29 07:27:49;;;;;;;7.93;1.90;;;;;;;19.30;62.14;100762.56;5045499;28;20044;-66
2021/07/29 07:30:16;;;;;;;11.50;2.40;;;;;;;19.37;62.26;100758.66;5044699;28;20056;-66
2021/07/29 07:32:42;;;;;;;8.02;1.98;;;;;;;19.48;60.46;100773.03;5050108;28;20852;-66
2021/07/29 07:35:10;;;;;;;10.27;2.88;;;;;;;19.49;60.73;100756.25;5048787;28;20099;-67
2021/07/29 07:37:39;;;;;;;9.98;2.22;;;;;;;19.60;62.02;100764.44;5047367;28;20508;-66
2021/07/29 07:40:06;;;;;;;14.10;2.40;;;;;;;19.52;60.12;100777.22;5046632;28;20083;-67
2021/07/29 07:42:33;;;;;;;8.23;2.05;;;;;;;19.62;60.35;100773.13;5041794;28;20072;-66
2021/07/29 07:44:59;;;;;;;9.02;1.75;;;;;;;19.66;59.07;100779.94;5044921;28;20482;-67
2021/07/29 07:47:27;;;;;;;6.50;1.75;;;;;;;19.39;59.72;100772.63;5044771;28;20483;-66
2021/07/29 07:49:53;;;;;;;11.93;2.28;;;;;;;19.37;60.29;100766.56;5048586;28;20050;-65
2021/07/29 07:52:20;;;;;;;10.88;2.10;;;;;;;19.37;59.71;100763.94;5046592;28;20099;-66
2021/07/29 07:54:48;;;;;;;8.23;1.55;;;;;;;19.44;59.25;100772.34;5047720;28;20049;-66
2021/07/29 07:57:14;;;;;;;12.90;2.30;;;;;;;19.51;59.11;100767.59;5046516;28;20102;-66
2021/07/29 07:59:40;;;;;;;6.18;2.00;;;;;;;19.55;58.70;100771.75;5040542;28;20046;-67
2021/07/29 08:02:07;;;;;;;11.02;2.47;;;;;;;19.45;58.58;100766.13;5046012;28;20052;-66
2021/07/29 08:04:34;;;;;;;13.10;2.15;;;;;;;19.39;57.71;100771.78;5046399;28;20577;-66
2021/07/29 08:07:01;;;;;;;11.40;2.30;;;;;;;19.61;57.20;100774.03;5043387;28;20419;-66
2021/07/29 08:09:27;;;;;;;9.82;2.13;;;;;;;19.69;57.54;100777.09;5039343;28;20041;-67
2021/07/29 08:11:55;;;;;;;8.10;2.08;;;;;;;19.91;57.41;100769.78;5043405;28;20426;-68
2021/07/29 08:14:21;;;;;;;7.78;2.15;;;;;;;19.92;56.33;100769.69;5043861;28;20094;-66
2021/07/29 08:16:48;;;;;;;12.13;2.20;;;;;;;20.02;56.28;100765.56;5043157;28;20075;-67
2021/07/29 08:19:14;;;;;;;12.23;2.70;;;;;;;20.16;56.16;100772.66;5046225;28;20041;-67
2021/07/29 08:21:41;;;;;;;8.52;2.00;;;;;;;20.45;56.25;100767.44;5041851;28;20400;-68
2021/07/29 08:24:07;;;;;;;14.07;2.60;;;;;;;20.50;54.98;100770.66;5049926;28;20053;-67
2021/07/29 08:26:34;;;;;;;9.63;1.92;;;;;;;20.48;56.17;100766.38;5042076;28;20065;-67
2021/07/29 08:29:01;;;;;;;9.57;3.05;;;;;;;20.54;55.59;100759.88;5042119;28;20103;-68
2021/07/29 08:31:28;;;;;;;8.43;1.88;;;;;;;20.63;53.97;100754.91;5040450;28;20049;-68
2021/07/29 08:33:54;;;;;;;10.85;2.33;;;;;;;20.43;53.71;100769.31;5046660;28;20417;-67
2021/07/29 08:36:21;;;;;;;10.63;2.33;;;;;;;20.14;53.33;100761.34;5045219;28;20513;-67
2021/07/29 08:38:51;;;;;;;9.68;1.98;;;;;;;19.76;55.07;100774.13;5047907;28;20041;-66
2021/07/29 08:41:19;;;;;;;10.43;2.28;;;;;;;19.97;56.50;100777.34;5046224;28;20509;-67
2021/07/29 08:43:46;;;;;;;9.98;2.17;;;;;;;20.32;54.88;100766.47;5039711;28;20171;-67
2021/07/29 08:46:19;;;;;;;6.70;1.90;;;;;;;20.39;54.18;100777.50;5041559;28;20037;-68
2021/07/29 08:48:46;;;;;;;10.60;2.20;;;;;;;20.51;54.04;100777.63;5047051;28;20053;-67
2021/07/29 08:51:15;;;;;;;9.73;1.85;;;;;;;20.76;52.77;100768.22;5045038;28;20110;-67
2021/07/29 08:53:41;;;;;;;6.60;1.70;;;;;;;20.75;53.07;100769.19;5043920;28;20084;-68
2021/07/29 08:56:08;;;;;;;8.93;2.30;;;;;;;20.49;51.86;100774.25;5044560;28;20135;-67
2021/07/29 08:58:34;;;;;;;14.82;2.70;;;;;;;20.39;52.19;100775.75;5042962;28;20048;-67
2021/07/29 09:01:04;;;;;;;9.00;2.05;;;;;;;20.46;52.97;100779.69;5045720;28;20049;-67
2021/07/29 09:03:33;;;;;;;7.25;2.10;;;;;;;20.51;53.37;100792.63;5041713;28;20562;-68
2021/07/29 09:06:06;;;;;;;7.70;1.63;;;;;;;20.42;52.65;100793.19;5042625;28;20056;-67
2021/07/29 09:08:43;;;;;;;8.48;2.03;;;;;;;20.57;52.90;100789.59;5049467;28;20053;-68
2021/07/29 09:11:29;;;;;;;22.50;12.70;;;;;;;20.93;53.75;100782.19;5041433;28;20537;-68
2021/07/29 09:14:12;;;;;;;9.77;3.15;;;;;;;21.20;52.12;100784.06;5039745;28;20049;-67
2021/07/29 09:17:04;;;;;;;9.02;2.20;;;;;;;21.11;51.76;100786.31;5042555;28;20103;-67
2021/07/29 09:19:35;;;;;;;5.82;1.67;;;;;;;20.95;51.60;100783.81;5031590;28;20072;-68
2021/07/29 09:22:10;;;;;;;8.27;1.83;;;;;;;20.58;53.06;100795.75;5042355;28;20536;-69
2021/07/29 09:24:53;;;;;;;12.50;2.17;;;;;;;20.69;51.35;100777.47;5038583;28;20386;-68
2021/07/29 09:27:20;;;;;;;8.50;2.15;;;;;;;20.90;52.62;100787.69;5042970;28;20057;-68
2021/07/29 09:29:46;;;;;;;9.45;1.80;;;;;;;21.06;52.23;100788.41;5038311;28;20469;-66
2021/07/29 09:32:15;;;;;;;8.45;1.77;;;;;;;21.34;50.90;100802.53;5042571;28;20396;-67
2021/07/29 09:34:45;;;;;;;6.78;1.70;;;;;;;21.42;49.41;100789.66;5043210;28;20124;-68
2021/07/29 09:37:12;;;;;;;14.77;2.22;;;;;;;21.33;50.14;100794.72;5039734;28;20045;-69
2021/07/29 09:39:38;;;;;;;8.20;2.03;;;;;;;21.27;51.49;100793.31;5046121;28;20143;-68
2021/07/29 09:42:16;;;;;;;8.73;1.95;;;;;;;21.31;51.73;100788.66;5045760;28;20044;-68
2021/07/29 09:44:44;;;;;;;13.55;2.15;;;;;;;21.41;51.25;100795.91;5039849;28;20045;-67
2021/07/29 09:47:10;;;;;;;11.13;2.20;;;;;;;21.39;49.87;100805.75;5035553;28;20529;-68
2021/07/29 09:49:37;;;;;;;7.18;1.85;;;;;;;21.47;51.97;100799.13;5039287;28;20045;-67
2021/07/29 09:52:07;;;;;;;7.43;1.90;;;;;;;21.62;50.68;100800.78;5059850;22;20052;-70
2021/07/29 09:54:35;;;;;;;5.97;1.58;;;;;;;21.71;48.15;100800.19;5031043;28;20053;-70
2021/07/29 09:57:02;;;;;;;8.90;1.90;;;;;;;21.75;49.71;100790.28;5042081;28;20049;-70
2021/07/29 09:59:28;;;;;;;10.85;2.15;;;;;;;21.65;47.62;100803.25;5043197;28;20045;-71
2021/07/29 10:01:55;;;;;;;7.38;2.00;;;;;;;21.67;47.11;100798.72;5035191;28;20466;-70
2021/07/29 10:04:28;;;;;;;5.47;1.70;;;;;;;21.33;47.10;100800.00;5030690;28;20526;-69
2021/07/29 10:06:57;;;;;;;6.93;1.65;;;;;;;21.37;45.81;100793.56;5029622;28;20056;-70
2021/07/29 10:09:27;;;;;;;9.18;2.35;;;;;;;21.37;45.87;100801.50;5031711;28;20053;-71
2021/07/29 10:11:58;;;;;;;11.30;1.92;;;;;;;21.54;46.80;100803.94;5030340;28;20403;-70
2021/07/29 10:14:47;;;;;;;9.02;1.90;;;;;;;21.54;46.34;100798.63;5032022;28;20099;-70
2021/07/29 10:17:14;;;;;;;8.30;1.83;;;;;;;21.48;47.66;100811.41;5025493;28;20049;-70
2021/07/29 10:20:14;;;;;;;10.77;2.40;;;;;;;21.62;47.15;100794.66;5031623;28;20049;-70
2021/07/29 10:22:40;;;;;;;7.72;1.92;;;;;;;21.88;47.02;100795.59;5021548;28;20053;-70
2021/07/29 10:25:09;;;;;;;5.90;1.98;;;;;;;22.14;46.34;100787.72;5030833;28;20046;-70
2021/07/29 10:27:36;;;;;;;7.00;1.70;;;;;;;22.26;44.14;100786.06;5037080;28;20477;-70
2021/07/29 10:30:30;;;;;;;13.23;1.90;;;;;;;22.17;44.36;100801.59;5032870;28;20037;-69
2021/07/29 10:32:57;;;;;;;10.70;6.40;;;;;;;22.22;44.45;100793.31;5033939;28;20056;-70
2021/07/29 10:35:39;;;;;;;9.18;2.88;;;;;;;22.06;45.07;100798.81;5034938;28;20075;-70
2021/07/29 10:38:05;;;;;;;9.73;2.35;;;;;;;22.09;45.30;100798.63;5026048;28;20095;-70
2021/07/29 10:40:34;;;;;;;6.90;1.70;;;;;;;22.00;44.30;100793.94;5029303;28;20501;-69
2021/07/29 10:43:34;;;;;;;10.82;2.13;;;;;;;22.19;42.20;100783.78;5020832;28;20502;-70
2021/07/29 10:46:01;;;;;;;6.95;1.48;;;;;;;22.16;42.86;100799.88;5035110;28;20095;-70
2021/07/29 10:49:12;;;;;;;6.70;1.60;;;;;;;21.91;41.80;100792.72;5039339;28;20128;-70
2021/07/29 10:51:59;;;;;;;11.18;2.58;;;;;;;21.85;43.91;100790.50;5026872;28;20049;-69
2021/07/29 10:54:27;;;;;;;9.27;1.83;;;;;;;21.71;43.75;100784.31;5025174;28;20067;-71
2021/07/29 10:56:55;;;;;;;9.52;2.00;;;;;;;21.66;45.49;100782.94;5042025;28;20053;-70
2021/07/29 10:59:22;;;;;;;7.35;2.00;;;;;;;21.69;44.08;100785.38;5034260;28;20045;-69
2021/07/29 11:01:50;;;;;;;8.52;2.22;;;;;;;21.86;44.44;100782.44;5033432;28;20046;-70
2021/07/29 11:04:16;;;;;;;12.88;2.47;;;;;;;21.77;42.30;100791.00;5033074;28;20089;-71
2021/07/29 11:06:43;;;;;;;6.32;1.60;;;;;;;21.87;42.32;100783.31;5031311;28;20534;-73
2021/07/29 11:09:11;;;;;;;9.95;2.10;;;;;;;21.66;44.00;100794.38;5035074;28;20095;-71
2021/07/29 11:11:38;;;;;;;9.77;2.03;;;;;;;21.58;44.02;100794.84;5040010;28;20057;-71
2021/07/29 11:14:07;;;;;;;8.60;1.67;;;;;;;21.85;43.22;100796.66;5044143;28;20049;-71
2021/07/29 11:16:34;;;;;;;8.80;2.05;;;;;;;22.02;42.51;100795.53;5034356;28;20060;-73
2021/07/29 11:19:02;;;;;;;8.77;2.00;;;;;;;22.18;43.68;100787.41;5045680;28;20052;-72
2021/07/29 11:21:28;;;;;;;5.45;1.80;;;;;;;22.21;43.27;100789.84;5035417;28;20654;-72
2021/07/29 11:23:55;;;;;;;6.85;2.08;;;;;;;22.28;42.97;100789.41;5031600;28;20506;-72
2021/07/29 11:26:21;;;;;;;7.28;2.08;;;;;;;22.34;43.88;100791.66;5021750;28;20511;-71
2021/07/29 11:29:07;;;;;;;8.07;1.40;;;;;;;22.58;43.06;100781.22;5025574;28;20057;-72